createdAt,value
2022-09-16T00:02:36.871Z,81.65
2022-09-16T00:07:39.758Z,81.62
2022-09-16T00:12:39.383Z,81.72
2022-09-16T00:17:39.131Z,81.58
2022-09-16T00:22:39.979Z,81.45
2022-09-16T00:27:38.773Z,81.29
2022-09-16T00:32:38.221Z,81.13
2022-09-16T00:37:38.678Z,81.13
2022-09-16T00:42:42.492Z,81.01
2022-09-16T00:47:50.734Z,80.91
2022-09-16T00:52:51.439Z,80.93
2022-09-16T00:57:52.608Z,80.97
2022-09-16T01:02:54.321Z,81.03
2022-09-16T01:07:58.021Z,80.86
2022-09-16T01:13:02.587Z,80.55
2022-09-16T01:18:25.355Z,80.44
2022-09-16T01:24:00.984Z,80.51
2022-09-16T01:29:33.556Z,80.74
2022-09-16T01:34:50.948Z,80.86
2022-09-16T01:40:05.228Z,80.92
2022-09-16T01:45:16.367Z,80.96
2022-09-16T01:50:24.570Z,81.06
2022-09-16T01:55:35.554Z,81.14
2022-09-16T02:00:36.419Z,81.27
2022-09-16T02:05:43.045Z,81.27
2022-09-16T02:10:49.268Z,81.19
2022-09-16T02:15:53.103Z,81.04
2022-09-16T02:20:57.806Z,80.89
2022-09-16T02:25:59.479Z,80.74
2022-09-16T02:31:03.714Z,80.68
2022-09-16T02:36:07.060Z,80.57
2022-09-16T02:41:06.862Z,80.49
2022-09-16T02:46:21.053Z,80.51
2022-09-16T02:51:32.076Z,80.57
2022-09-16T02:56:38.032Z,80.70
2022-09-16T03:01:41.661Z,80.75
2022-09-16T03:06:41.296Z,80.74
2022-09-16T03:11:57.074Z,80.76
2022-09-16T03:17:07.814Z,80.87
2022-09-16T03:22:19.361Z,81.06
2022-09-16T03:27:29.887Z,81.13
2022-09-16T03:32:35.118Z,81.44
2022-09-16T03:37:37.203Z,81.91
2022-09-16T03:42:36.701Z,82.13
2022-09-16T03:47:35.833Z,82.64
2022-09-16T03:52:36.020Z,82.75
2022-09-16T03:57:36.896Z,82.64
2022-09-16T04:02:36.864Z,82.81
2022-09-16T04:07:36.959Z,83.09
2022-09-16T04:12:36.257Z,83.15
2022-09-16T04:17:37.588Z,83.14
2022-09-16T04:22:38.912Z,83.24
2022-09-16T04:27:38.621Z,83.36
2022-09-16T04:32:37.796Z,83.26
2022-09-16T04:37:37.222Z,83.42
2022-09-16T04:42:36.234Z,83.52
2022-09-16T04:47:34.842Z,83.53
2022-09-16T04:52:36.670Z,83.61
2022-09-16T04:57:37.786Z,83.69
2022-09-16T05:02:37.096Z,83.74
2022-09-16T05:07:36.585Z,83.75
2022-09-16T05:12:35.987Z,83.88
2022-09-16T05:17:51.895Z,83.89
2022-09-16T05:22:53.675Z,83.89
2022-09-16T05:27:52.964Z,83.78
2022-09-16T05:32:56.651Z,83.75
2022-09-16T05:37:55.467Z,83.54
2022-09-16T05:42:55.658Z,83.33
2022-09-16T05:47:55.268Z,83.03
2022-09-16T05:52:54.407Z,82.60
2022-09-16T05:57:52.979Z,82.09
2022-09-16T06:02:54.189Z,81.68
2022-09-16T06:07:57.288Z,81.50
2022-09-16T06:12:57.196Z,81.10
2022-09-16T06:17:55.641Z,80.34
2022-09-16T06:22:54.509Z,79.96
2022-09-16T06:27:53.687Z,79.96
2022-09-16T06:32:52.161Z,79.46
2022-09-16T06:37:51.128Z,79.49
2022-09-16T06:42:51.773Z,78.87
2022-09-16T06:47:50.753Z,78.51
2022-09-16T06:52:55.091Z,77.80
2022-09-16T06:57:54.578Z,77.24
2022-09-16T07:02:53.938Z,77.22
2022-09-16T07:07:53.177Z,76.63
2022-09-16T07:12:52.328Z,75.89
2022-09-16T07:17:54.690Z,75.89
2022-09-16T07:22:54.815Z,74.57
2022-09-16T07:27:53.739Z,73.65
2022-09-16T07:32:52.204Z,73.50
2022-09-16T07:37:51.224Z,71.65
2022-09-16T07:42:50.537Z,68.89
2022-09-16T07:47:52.019Z,68.08
2022-09-16T07:52:55.047Z,67.86
2022-09-16T07:57:54.422Z,66.50
2022-09-16T08:02:57.253Z,65.68
2022-09-16T08:07:56.398Z,64.44
2022-09-16T08:12:55.430Z,62.97
2022-09-16T08:17:54.837Z,61.27
2022-09-16T08:22:57.426Z,61.62
2022-09-16T08:27:57.332Z,60.69
2022-09-16T08:33:01.591Z,57.99
2022-09-16T08:37:59.998Z,57.38
2022-09-16T08:43:14.093Z,57.26
2022-09-16T08:48:30.825Z,56.87
2022-09-16T08:53:40.290Z,56.60
2022-09-16T08:58:46.566Z,57.04
2022-09-16T09:03:49.353Z,56.77
2022-09-16T09:08:59.422Z,55.71
2022-09-16T09:14:18.610Z,55.94
2022-09-16T09:19:36.266Z,55.47
2022-09-16T09:24:56.852Z,54.26
2022-09-16T09:30:10.904Z,53.20
2022-09-16T09:35:30.485Z,53.38
2022-09-16T09:40:40.868Z,53.02
2022-09-16T09:45:45.204Z,52.42
2022-09-16T09:50:48.085Z,52.03
2022-09-16T09:55:46.933Z,51.49
2022-09-16T10:00:46.217Z,51.90
2022-09-16T10:05:47.559Z,52.38
2022-09-16T10:10:54.975Z,51.74
2022-09-16T10:16:10.365Z,50.88
2022-09-16T10:21:14.059Z,49.74
2022-09-16T10:26:27.259Z,50.65
2022-09-16T10:31:33.541Z,50.20
2022-09-16T10:36:38.356Z,49.12
2022-09-16T10:41:46.551Z,48.39
2022-09-16T10:46:57.136Z,48.18
2022-09-16T10:51:56.779Z,49.47
2022-09-16T10:56:57.004Z,49.49
2022-09-16T11:02:09.227Z,48.19
2022-09-16T11:07:22.996Z,47.63
2022-09-16T11:12:56.220Z,47.10
2022-09-16T11:18:22.081Z,47.17
2022-09-16T11:23:38.956Z,44.95
2022-09-16T11:29:01.161Z,44.62
2022-09-16T11:34:10.216Z,43.27
2022-09-16T11:39:27.367Z,42.86
2022-09-16T11:44:45.804Z,42.62
2022-09-16T11:50:04.761Z,42.35
2022-09-16T11:55:27.358Z,41.45
2022-09-16T12:00:26.887Z,40.71
2022-09-16T12:05:32.545Z,39.49
2022-09-16T12:10:39.825Z,39.67
2022-09-16T12:15:46.473Z,39.84
2022-09-16T12:20:52.413Z,39.48
2022-09-16T12:26:06.772Z,38.88
2022-09-16T12:31:15.121Z,40.16
2022-09-16T12:36:23.827Z,41.40
2022-09-16T12:41:53.201Z,42.81
2022-09-16T12:47:42.753Z,43.44
2022-09-16T12:53:33.533Z,42.47
2022-09-16T12:59:07.126Z,42.89
2022-09-16T13:04:15.966Z,43.65
2022-09-16T13:09:27.414Z,44.53
2022-09-16T13:14:31.437Z,44.95
2022-09-16T13:19:46.919Z,45.13
2022-09-16T13:24:52.286Z,42.79
2022-09-16T13:29:50.937Z,41.26
2022-09-16T13:35:01.214Z,40.74
2022-09-16T13:40:20.550Z,41.76
2022-09-16T13:45:45.142Z,42.72
2022-09-16T13:50:50.742Z,42.82
2022-09-16T13:55:52.600Z,42.77
2022-09-16T14:01:03.951Z,43.31
2022-09-16T14:06:41.735Z,42.76
2022-09-16T14:12:04.995Z,41.67
2022-09-16T14:17:15.538Z,41.30
2022-09-16T14:22:23.344Z,42.51
2022-09-16T14:27:34.324Z,42.13
2022-09-16T14:32:37.561Z,41.85
2022-09-16T14:37:39.558Z,42.63
2022-09-16T14:42:38.903Z,42.58
2022-09-16T14:47:51.739Z,42.94
2022-09-16T14:53:01.561Z,43.53
2022-09-16T14:58:01.508Z,44.35
2022-09-16T15:03:11.567Z,44.24
2022-09-16T15:08:19.156Z,44.56
2022-09-16T15:13:21.233Z,44.85
2022-09-16T15:18:29.887Z,45.62
2022-09-16T15:23:31.007Z,46.90
2022-09-16T15:28:30.892Z,47.85
2022-09-16T15:33:37.753Z,47.78
2022-09-16T15:38:44.100Z,48.35
2022-09-16T15:43:47.409Z,48.86
2022-09-16T15:48:52.966Z,49.46
2022-09-16T15:53:55.142Z,50.01
2022-09-16T15:58:59.438Z,50.33
2022-09-16T16:04:01.836Z,49.42
2022-09-16T16:09:00.704Z,48.83
2022-09-16T16:14:03.003Z,48.15
2022-09-16T16:19:04.103Z,47.67
2022-09-16T16:24:05.286Z,47.29
2022-09-16T16:29:05.117Z,48.11
2022-09-16T16:34:04.199Z,48.99
2022-09-16T16:39:03.830Z,49.56
2022-09-16T16:44:02.789Z,49.88
2022-09-16T16:49:03.017Z,50.72
2022-09-16T16:54:02.574Z,51.40
2022-09-16T16:59:01.981Z,52.08
2022-09-16T17:04:03.323Z,52.66
2022-09-16T17:09:02.385Z,53.26
2022-09-16T17:14:04.653Z,53.89
2022-09-16T17:19:05.623Z,54.51
2022-09-16T17:24:05.406Z,55.40
2022-09-16T17:29:14.816Z,56.26
2022-09-16T17:34:18.274Z,57.08
2022-09-16T17:39:21.710Z,58.12
2022-09-16T17:44:22.284Z,58.83
2022-09-16T17:49:24.147Z,59.29
2022-09-16T17:54:23.990Z,59.64
2022-09-16T17:59:25.492Z,59.85
2022-09-16T18:04:24.963Z,60.23
2022-09-16T18:09:23.682Z,60.63
2022-09-16T18:14:23.688Z,60.85
2022-09-16T18:19:23.141Z,61.29
2022-09-16T18:24:22.092Z,61.56
2022-09-16T18:29:20.708Z,61.93
2022-09-16T18:34:20.631Z,62.25
2022-09-16T18:39:21.125Z,62.44
2022-09-16T18:44:24.641Z,62.38
2022-09-16T18:49:27.350Z,62.62
2022-09-16T18:54:29.010Z,62.81
2022-09-16T18:59:31.460Z,63.16
2022-09-16T19:04:33.005Z,63.35
2022-09-16T19:09:36.436Z,63.42
2022-09-16T19:14:36.154Z,63.67
2022-09-16T19:19:35.652Z,63.87
2022-09-16T19:24:35.573Z,64.04
2022-09-16T19:29:34.615Z,64.15
2022-09-16T19:34:33.935Z,64.43
2022-09-16T19:39:33.206Z,64.68
2022-09-16T19:44:33.097Z,65.03
2022-09-16T19:49:31.591Z,65.56
2022-09-16T19:54:30.416Z,65.79
2022-09-16T19:59:29.353Z,66.00
2022-09-16T20:04:29.088Z,66.44
2022-09-16T20:09:28.640Z,66.73
2022-09-16T20:14:34.002Z,66.96
2022-09-16T20:19:33.927Z,67.15
2022-09-16T20:24:32.581Z,67.47
2022-09-16T20:29:32.154Z,67.70
2022-09-16T20:34:31.809Z,67.87
2022-09-16T20:39:30.866Z,68.12
2022-09-16T20:44:29.780Z,68.32
2022-09-16T20:49:29.649Z,68.56
2022-09-16T20:54:28.375Z,68.83
2022-09-16T20:59:27.651Z,68.99
2022-09-16T21:04:27.381Z,69.43
2022-09-16T21:09:26.691Z,69.74
2022-09-16T21:14:26.299Z,69.82
2022-09-16T21:19:25.808Z,70.27
2022-09-16T21:24:25.190Z,70.38
2022-09-16T21:29:26.976Z,70.43
2022-09-16T21:34:25.857Z,70.96
2022-09-16T21:39:25.459Z,71.19
2022-09-16T21:44:28.912Z,71.29
2022-09-16T21:49:29.266Z,71.85
2022-09-16T21:54:30.776Z,72.12
2022-09-16T21:59:29.866Z,72.33
2022-09-16T22:04:30.550Z,72.53
2022-09-16T22:09:30.140Z,72.57
2022-09-16T22:14:29.431Z,73.00
2022-09-16T22:19:29.099Z,73.14
2022-09-16T22:24:27.676Z,73.31
2022-09-16T22:29:26.838Z,73.33
2022-09-16T22:34:26.081Z,73.46
2022-09-16T22:39:25.438Z,73.48
2022-09-16T22:44:24.528Z,73.73
2022-09-16T22:49:24.014Z,74.03
2022-09-16T22:54:23.236Z,74.28
2022-09-16T22:59:24.321Z,74.30
2022-09-16T23:04:27.351Z,74.41
2022-09-16T23:09:26.585Z,74.60
2022-09-16T23:14:26.510Z,74.67
2022-09-16T23:19:26.210Z,74.83
2022-09-16T23:24:26.186Z,75.08
2022-09-16T23:29:25.101Z,75.13
2022-09-16T23:34:25.232Z,75.32
2022-09-16T23:39:24.612Z,75.46
2022-09-16T23:44:25.727Z,75.74
2022-09-16T23:49:24.312Z,75.80
2022-09-16T23:54:23.869Z,75.93
2022-09-16T23:59:22.879Z,76.10
